sensor_id;sensor_type;location;lat;lon;timestamp;temperature;humidity
45983;DHT22;31711;47.158;7.346;2023-07-09T00:01:18;19.10;99.90
45983;DHT22;31711;47.158;7.346;2023-07-09T00:03:45;19.10;99.90
45983;DHT22;31711;47.158;7.346;2023-07-09T00:06:12;19.00;99.90
45983;DHT22;31711;47.158;7.346;2023-07-09T00:08:43;19.00;99.90
45983;DHT22;31711;47.158;7.346;2023-07-09T00:11:10;19.00;99.90
45983;DHT22;31711;47.158;7.346;2023-07-09T00:13:36;19.00;99.90
45983;DHT22;31711;47.158;7.346;2023-07-09T00:16:10;19.00;99.90
45983;DHT22;31711;47.158;7.346;2023-07-09T00:18:37;19.00;99.90
45983;DHT22;31711;47.158;7.346;2023-07-09T00:21:03;18.90;99.90
45983;DHT22;31711;47.158;7.346;2023-07-09T00:23:29;18.90;99.90
45983;DHT22;31711;47.158;7.346;2023-07-09T00:25:55;18.90;99.90
45983;DHT22;31711;47.158;7.346;2023-07-09T00:28:21;18.80;99.90
45983;DHT22;31711;47.158;7.346;2023-07-09T00:30:48;18.80;99.90
45983;DHT22;31711;47.158;7.346;2023-07-09T00:33:16;18.80;99.90
45983;DHT22;31711;47.158;7.346;2023-07-09T00:35:46;18.80;99.90
45983;DHT22;31711;47.158;7.346;2023-07-09T00:38:21;18.80;99.90
45983;DHT22;31711;47.158;7.346;2023-07-09T00:41:06;18.80;99.90
45983;DHT22;31711;47.158;7.346;2023-07-09T00:43:35;18.80;99.90
45983;DHT22;31711;47.158;7.346;2023-07-09T00:48:57;18.60;99.90
45983;DHT22;31711;47.158;7.346;2023-07-09T00:51:25;18.60;99.90
45983;DHT22;31711;47.158;7.346;2023-07-09T00:53:57;18.60;99.90
45983;DHT22;31711;47.158;7.346;2023-07-09T00:56:31;18.50;99.90
45983;DHT22;31711;47.158;7.346;2023-07-09T00:59:01;18.50;99.90
45983;DHT22;31711;47.158;7.346;2023-07-09T01:01:31;18.50;99.90
45983;DHT22;31711;47.158;7.346;2023-07-09T01:03:59;18.50;99.90
45983;DHT22;31711;47.158;7.346;2023-07-09T01:06:58;18.50;99.90
45983;DHT22;31711;47.158;7.346;2023-07-09T01:09:25;18.50;99.90
45983;DHT22;31711;47.158;7.346;2023-07-09T01:11:52;18.40;99.90
45983;DHT22;31711;47.158;7.346;2023-07-09T01:14:23;18.40;99.90
45983;DHT22;31711;47.158;7.346;2023-07-09T01:17:01;18.40;99.90
45983;DHT22;31711;47.158;7.346;2023-07-09T01:19:29;18.40;99.90
45983;DHT22;31711;47.158;7.346;2023-07-09T01:21:58;18.40;99.90
45983;DHT22;31711;47.158;7.346;2023-07-09T01:24:59;18.40;99.90
45983;DHT22;31711;47.158;7.346;2023-07-09T01:27:35;18.40;99.90
45983;DHT22;31711;47.158;7.346;2023-07-09T01:30:07;18.30;99.90
45983;DHT22;31711;47.158;7.346;2023-07-09T01:32:33;18.30;99.90
45983;DHT22;31711;47.158;7.346;2023-07-09T01:35:01;18.20;99.90
45983;DHT22;31711;47.158;7.346;2023-07-09T01:37:31;18.20;99.90
45983;DHT22;31711;47.158;7.346;2023-07-09T01:39:58;18.20;99.90
45983;DHT22;31711;47.158;7.346;2023-07-09T01:42:25;18.20;99.90
45983;DHT22;31711;47.158;7.346;2023-07-09T01:44:53;18.20;99.90
45983;DHT22;31711;47.158;7.346;2023-07-09T01:47:20;18.10;99.90
45983;DHT22;31711;47.158;7.346;2023-07-09T01:49:46;18.00;99.90
45983;DHT22;31711;47.158;7.346;2023-07-09T01:52:14;17.90;99.90
45983;DHT22;31711;47.158;7.346;2023-07-09T01:54:42;17.90;99.90
45983;DHT22;31711;47.158;7.346;2023-07-09T01:57:20;17.90;99.90
45983;DHT22;31711;47.158;7.346;2023-07-09T01:59:52;17.80;99.90
45983;DHT22;31711;47.158;7.346;2023-07-09T02:02:23;17.80;99.90
45983;DHT22;31711;47.158;7.346;2023-07-09T02:04:55;17.90;99.90
45983;DHT22;31711;47.158;7.346;2023-07-09T02:07:23;17.90;99.90
45983;DHT22;31711;47.158;7.346;2023-07-09T02:09:50;17.90;99.90
45983;DHT22;31711;47.158;7.346;2023-07-09T02:12:17;17.90;99.90
45983;DHT22;31711;47.158;7.346;2023-07-09T02:14:44;17.90;99.90
45983;DHT22;31711;47.158;7.346;2023-07-09T02:17:12;17.90;99.90
45983;DHT22;31711;47.158;7.346;2023-07-09T02:19:39;17.80;99.90
45983;DHT22;31711;47.158;7.346;2023-07-09T02:22:05;17.90;99.90
45983;DHT22;31711;47.158;7.346;2023-07-09T02:24:32;17.90;99.90
45983;DHT22;31711;47.158;7.346;2023-07-09T02:27:02;17.90;99.90
45983;DHT22;31711;47.158;7.346;2023-07-09T02:29:29;17.90;99.90
45983;DHT22;31711;47.158;7.346;2023-07-09T02:31:57;17.90;99.90
45983;DHT22;31711;47.158;7.346;2023-07-09T02:34:25;17.80;99.90
45983;DHT22;31711;47.158;7.346;2023-07-09T02:36:52;17.80;99.90
45983;DHT22;31711;47.158;7.346;2023-07-09T02:39:19;17.80;99.90
45983;DHT22;31711;47.158;7.346;2023-07-09T02:41:45;17.80;99.90
45983;DHT22;31711;47.158;7.346;2023-07-09T02:44:11;17.80;99.90
45983;DHT22;31711;47.158;7.346;2023-07-09T02:46:37;17.70;99.90
45983;DHT22;31711;47.158;7.346;2023-07-09T02:49:04;17.70;99.90
45983;DHT22;31711;47.158;7.346;2023-07-09T02:51:30;17.60;99.90
45983;DHT22;31711;47.158;7.346;2023-07-09T02:53:59;17.60;99.90
45983;DHT22;31711;47.158;7.346;2023-07-09T02:56:25;17.60;99.90
45983;DHT22;31711;47.158;7.346;2023-07-09T02:58:51;17.60;99.90
45983;DHT22;31711;47.158;7.346;2023-07-09T03:01:18;17.50;99.90
45983;DHT22;31711;47.158;7.346;2023-07-09T03:03:51;17.50;99.90
45983;DHT22;31711;47.158;7.346;2023-07-09T03:06:20;17.50;99.90
45983;DHT22;31711;47.158;7.346;2023-07-09T03:08:46;17.50;99.90
45983;DHT22;31711;47.158;7.346;2023-07-09T03:11:13;17.50;99.90
45983;DHT22;31711;47.158;7.346;2023-07-09T03:13:39;17.50;99.90
45983;DHT22;31711;47.158;7.346;2023-07-09T03:16:05;17.50;99.90
45983;DHT22;31711;47.158;7.346;2023-07-09T03:18:31;17.40;99.90
45983;DHT22;31711;47.158;7.346;2023-07-09T03:20:58;17.40;99.90
45983;DHT22;31711;47.158;7.346;2023-07-09T03:23:24;17.40;99.90
45983;DHT22;31711;47.158;7.346;2023-07-09T03:25:50;17.30;99.90
45983;DHT22;31711;47.158;7.346;2023-07-09T03:28:16;17.20;99.90
45983;DHT22;31711;47.158;7.346;2023-07-09T03:30:44;17.20;99.90
45983;DHT22;31711;47.158;7.346;2023-07-09T03:33:11;17.00;99.90
45983;DHT22;31711;47.158;7.346;2023-07-09T03:35:38;17.00;99.90
45983;DHT22;31711;47.158;7.346;2023-07-09T03:38:05;17.00;99.90
45983;DHT22;31711;47.158;7.346;2023-07-09T03:40:31;17.00;99.90
45983;DHT22;31711;47.158;7.346;2023-07-09T03:42:58;17.00;99.90
45983;DHT22;31711;47.158;7.346;2023-07-09T03:45:24;16.90;99.90
45983;DHT22;31711;47.158;7.346;2023-07-09T03:47:50;16.90;99.90
45983;DHT22;31711;47.158;7.346;2023-07-09T03:50:16;16.90;99.90
45983;DHT22;31711;47.158;7.346;2023-07-09T03:52:42;17.00;99.90
45983;DHT22;31711;47.158;7.346;2023-07-09T03:55:09;16.90;99.90
45983;DHT22;31711;47.158;7.346;2023-07-09T03:57:35;16.90;99.90
45983;DHT22;31711;47.158;7.346;2023-07-09T04:00:03;16.90;99.90
45983;DHT22;31711;47.158;7.346;2023-07-09T04:02:29;16.90;99.90
45983;DHT22;31711;47.158;7.346;2023-07-09T04:04:55;16.90;99.90
45983;DHT22;31711;47.158;7.346;2023-07-09T04:07:21;17.00;99.90
45983;DHT22;31711;47.158;7.346;2023-07-09T04:09:48;17.00;99.90
45983;DHT22;31711;47.158;7.346;2023-07-09T04:12:14;17.00;99.90
45983;DHT22;31711;47.158;7.346;2023-07-09T04:14:40;17.10;99.90
45983;DHT22;31711;47.158;7.346;2023-07-09T04:17:07;17.20;99.90
45983;DHT22;31711;47.158;7.346;2023-07-09T04:19:32;17.20;99.90
45983;DHT22;31711;47.158;7.346;2023-07-09T04:21:58;17.20;99.90
45983;DHT22;31711;47.158;7.346;2023-07-09T04:24:24;17.40;99.90
45983;DHT22;31711;47.158;7.346;2023-07-09T04:26:53;17.50;99.90
45983;DHT22;31711;47.158;7.346;2023-07-09T04:29:25;17.60;99.90
45983;DHT22;31711;47.158;7.346;2023-07-09T04:31:51;17.60;99.90
45983;DHT22;31711;47.158;7.346;2023-07-09T04:34:17;17.60;99.90
45983;DHT22;31711;47.158;7.346;2023-07-09T04:36:43;17.70;99.90
45983;DHT22;31711;47.158;7.346;2023-07-09T04:39:09;17.80;99.90
45983;DHT22;31711;47.158;7.346;2023-07-09T04:41:35;17.90;99.90
45983;DHT22;31711;47.158;7.346;2023-07-09T04:44:01;18.00;99.90
45983;DHT22;31711;47.158;7.346;2023-07-09T04:46:27;18.10;99.90
45983;DHT22;31711;47.158;7.346;2023-07-09T04:48:53;18.20;99.90
45983;DHT22;31711;47.158;7.346;2023-07-09T04:51:19;18.30;99.90
45983;DHT22;31711;47.158;7.346;2023-07-09T04:53:44;18.40;99.90
45983;DHT22;31711;47.158;7.346;2023-07-09T04:56:10;18.40;99.90
45983;DHT22;31711;47.158;7.346;2023-07-09T04:58:37;18.40;99.90
45983;DHT22;31711;47.158;7.346;2023-07-09T05:01:03;18.40;99.90
45983;DHT22;31711;47.158;7.346;2023-07-09T05:03:29;18.50;99.90
45983;DHT22;31711;47.158;7.346;2023-07-09T05:05:55;18.50;99.90
45983;DHT22;31711;47.158;7.346;2023-07-09T05:08:21;18.50;99.90
45983;DHT22;31711;47.158;7.346;2023-07-09T05:10:50;18.60;99.90
45983;DHT22;31711;47.158;7.346;2023-07-09T05:13:17;18.60;99.90
45983;DHT22;31711;47.158;7.346;2023-07-09T05:15:45;18.70;99.90
45983;DHT22;31711;47.158;7.346;2023-07-09T05:18:12;18.90;99.90
45983;DHT22;31711;47.158;7.346;2023-07-09T05:20:39;18.90;99.90
45983;DHT22;31711;47.158;7.346;2023-07-09T05:23:06;19.00;99.90
45983;DHT22;31711;47.158;7.346;2023-07-09T05:25:32;19.10;99.90
45983;DHT22;31711;47.158;7.346;2023-07-09T05:27:58;19.20;99.90
45983;DHT22;31711;47.158;7.346;2023-07-09T05:30:24;19.20;99.90
45983;DHT22;31711;47.158;7.346;2023-07-09T05:32:50;19.40;99.90
45983;DHT22;31711;47.158;7.346;2023-07-09T05:35:16;19.40;99.90
45983;DHT22;31711;47.158;7.346;2023-07-09T05:37:42;19.40;99.90
45983;DHT22;31711;47.158;7.346;2023-07-09T05:40:08;19.50;99.90
45983;DHT22;31711;47.158;7.346;2023-07-09T05:42:34;19.50;99.90
45983;DHT22;31711;47.158;7.346;2023-07-09T05:45:00;19.50;99.90
45983;DHT22;31711;47.158;7.346;2023-07-09T05:47:27;19.60;99.90
45983;DHT22;31711;47.158;7.346;2023-07-09T05:49:53;19.70;99.90
45983;DHT22;31711;47.158;7.346;2023-07-09T05:52:22;19.90;99.90
45983;DHT22;31711;47.158;7.346;2023-07-09T05:54:51;19.90;99.90
45983;DHT22;31711;47.158;7.346;2023-07-09T05:57:17;20.20;99.90
45983;DHT22;31711;47.158;7.346;2023-07-09T05:59:43;20.20;99.90
45983;DHT22;31711;47.158;7.346;2023-07-09T06:02:18;20.30;99.90
45983;DHT22;31711;47.158;7.346;2023-07-09T06:04:45;20.40;99.90
45983;DHT22;31711;47.158;7.346;2023-07-09T06:07:12;20.50;99.90
45983;DHT22;31711;47.158;7.346;2023-07-09T06:09:39;20.50;99.90
45983;DHT22;31711;47.158;7.346;2023-07-09T06:12:06;20.50;99.90
45983;DHT22;31711;47.158;7.346;2023-07-09T06:14:33;20.40;99.90
45983;DHT22;31711;47.158;7.346;2023-07-09T06:17:00;20.50;99.90
45983;DHT22;31711;47.158;7.346;2023-07-09T06:19:26;20.70;99.90
45983;DHT22;31711;47.158;7.346;2023-07-09T06:21:52;20.90;99.90
45983;DHT22;31711;47.158;7.346;2023-07-09T06:24:18;21.00;99.90
45983;DHT22;31711;47.158;7.346;2023-07-09T06:26:44;21.10;99.90
45983;DHT22;31711;47.158;7.346;2023-07-09T06:29:10;21.30;99.90
45983;DHT22;31711;47.158;7.346;2023-07-09T06:31:36;21.40;99.90
45983;DHT22;31711;47.158;7.346;2023-07-09T06:34:03;21.40;99.90
45983;DHT22;31711;47.158;7.346;2023-07-09T06:36:29;21.40;99.90
45983;DHT22;31711;47.158;7.346;2023-07-09T06:38:55;21.50;99.90
45983;DHT22;31711;47.158;7.346;2023-07-09T06:41:21;21.60;99.90
45983;DHT22;31711;47.158;7.346;2023-07-09T06:43:47;21.80;99.90
45983;DHT22;31711;47.158;7.346;2023-07-09T06:46:14;21.90;99.90
45983;DHT22;31711;47.158;7.346;2023-07-09T06:48:40;21.90;99.90
45983;DHT22;31711;47.158;7.346;2023-07-09T06:51:06;22.00;99.90
45983;DHT22;31711;47.158;7.346;2023-07-09T06:53:33;22.20;99.90
45983;DHT22;31711;47.158;7.346;2023-07-09T06:55:59;22.10;99.90
45983;DHT22;31711;47.158;7.346;2023-07-09T06:58:27;22.30;99.90
45983;DHT22;31711;47.158;7.346;2023-07-09T07:00:54;22.30;99.90
45983;DHT22;31711;47.158;7.346;2023-07-09T07:03:21;22.30;99.90
45983;DHT22;31711;47.158;7.346;2023-07-09T07:05:50;22.40;99.90
45983;DHT22;31711;47.158;7.346;2023-07-09T07:08:18;22.50;99.90
45983;DHT22;31711;47.158;7.346;2023-07-09T07:10:45;22.70;99.90
45983;DHT22;31711;47.158;7.346;2023-07-09T07:13:12;22.70;99.90
45983;DHT22;31711;47.158;7.346;2023-07-09T07:15:38;22.80;99.90
45983;DHT22;31711;47.158;7.346;2023-07-09T07:18:05;22.90;99.90
45983;DHT22;31711;47.158;7.346;2023-07-09T07:20:33;23.00;99.90
45983;DHT22;31711;47.158;7.346;2023-07-09T07:22:59;23.20;99.90
45983;DHT22;31711;47.158;7.346;2023-07-09T07:25:25;23.30;99.90
45983;DHT22;31711;47.158;7.346;2023-07-09T07:27:52;23.50;99.90
45983;DHT22;31711;47.158;7.346;2023-07-09T07:30:19;23.50;99.90
45983;DHT22;31711;47.158;7.346;2023-07-09T07:32:46;23.60;99.90
45983;DHT22;31711;47.158;7.346;2023-07-09T07:35:13;23.60;99.90
45983;DHT22;31711;47.158;7.346;2023-07-09T07:37:40;23.50;99.90
45983;DHT22;31711;47.158;7.346;2023-07-09T07:40:08;23.60;99.90
45983;DHT22;31711;47.158;7.346;2023-07-09T07:42:34;23.80;99.90
45983;DHT22;31711;47.158;7.346;2023-07-09T07:45:00;24.00;99.90
45983;DHT22;31711;47.158;7.346;2023-07-09T07:47:26;24.00;99.90
45983;DHT22;31711;47.158;7.346;2023-07-09T07:49:53;24.20;99.90
45983;DHT22;31711;47.158;7.346;2023-07-09T07:52:19;24.40;99.90
45983;DHT22;31711;47.158;7.346;2023-07-09T07:54:45;24.50;99.90
45983;DHT22;31711;47.158;7.346;2023-07-09T07:57:12;24.60;99.90
45983;DHT22;31711;47.158;7.346;2023-07-09T07:59:38;24.60;99.90
45983;DHT22;31711;47.158;7.346;2023-07-09T08:02:06;24.70;99.90
45983;DHT22;31711;47.158;7.346;2023-07-09T08:04:32;24.70;99.90
45983;DHT22;31711;47.158;7.346;2023-07-09T08:06:58;24.60;99.90
45983;DHT22;31711;47.158;7.346;2023-07-09T08:09:25;24.70;99.90
45983;DHT22;31711;47.158;7.346;2023-07-09T08:11:51;24.90;99.90
45983;DHT22;31711;47.158;7.346;2023-07-09T08:14:17;25.10;99.90
45983;DHT22;31711;47.158;7.346;2023-07-09T08:16:43;25.20;99.90
45983;DHT22;31711;47.158;7.346;2023-07-09T08:19:09;25.10;99.90
45983;DHT22;31711;47.158;7.346;2023-07-09T08:21:35;25.20;99.90
45983;DHT22;31711;47.158;7.346;2023-07-09T08:24:02;25.30;99.90
45983;DHT22;31711;47.158;7.346;2023-07-09T08:26:28;25.40;99.90
45983;DHT22;31711;47.158;7.346;2023-07-09T08:28:54;25.40;99.90
45983;DHT22;31711;47.158;7.346;2023-07-09T08:31:20;25.50;99.90
45983;DHT22;31711;47.158;7.346;2023-07-09T08:33:46;25.60;99.90
45983;DHT22;31711;47.158;7.346;2023-07-09T08:36:12;25.80;99.90
45983;DHT22;31711;47.158;7.346;2023-07-09T08:38:38;25.90;99.90
45983;DHT22;31711;47.158;7.346;2023-07-09T08:48:54;26.60;99.90
45983;DHT22;31711;47.158;7.346;2023-07-09T08:51:38;26.70;99.90
45983;DHT22;31711;47.158;7.346;2023-07-09T08:54:13;26.90;99.90
45983;DHT22;31711;47.158;7.346;2023-07-09T08:56:40;26.90;99.90
45983;DHT22;31711;47.158;7.346;2023-07-09T08:59:08;26.90;99.90
45983;DHT22;31711;47.158;7.346;2023-07-09T09:01:41;27.10;99.90
45983;DHT22;31711;47.158;7.346;2023-07-09T09:04:34;27.10;99.90
45983;DHT22;31711;47.158;7.346;2023-07-09T09:09:41;27.30;99.90
45983;DHT22;31711;47.158;7.346;2023-07-09T09:12:23;27.40;99.90
45983;DHT22;31711;47.158;7.346;2023-07-09T09:15:03;27.50;99.90
45983;DHT22;31711;47.158;7.346;2023-07-09T09:17:34;27.50;99.90
45983;DHT22;31711;47.158;7.346;2023-07-09T09:20:03;27.50;99.90
45983;DHT22;31711;47.158;7.346;2023-07-09T09:22:36;27.70;99.90
45983;DHT22;31711;47.158;7.346;2023-07-09T09:27:45;27.80;99.90
45983;DHT22;31711;47.158;7.346;2023-07-09T09:30:20;27.90;99.90
45983;DHT22;31711;47.158;7.346;2023-07-09T09:33:07;28.00;99.90
45983;DHT22;31711;47.158;7.346;2023-07-09T09:35:40;28.10;99.90
45983;DHT22;31711;47.158;7.346;2023-07-09T09:38:11;28.00;99.90
45983;DHT22;31711;47.158;7.346;2023-07-09T09:40:38;28.30;99.90
45983;DHT22;31711;47.158;7.346;2023-07-09T09:43:16;28.40;99.90
45983;DHT22;31711;47.158;7.346;2023-07-09T09:45:44;28.30;99.90
45983;DHT22;31711;47.158;7.346;2023-07-09T09:48:19;28.50;99.90
45983;DHT22;31711;47.158;7.346;2023-07-09T09:50:46;28.50;99.90
45983;DHT22;31711;47.158;7.346;2023-07-09T09:53:23;28.60;99.90
45983;DHT22;31711;47.158;7.346;2023-07-09T09:55:52;28.60;99.70
45983;DHT22;31711;47.158;7.346;2023-07-09T09:58:19;28.80;99.90
45983;DHT22;31711;47.158;7.346;2023-07-09T10:00:52;28.80;98.90
45983;DHT22;31711;47.158;7.346;2023-07-09T10:03:19;28.70;98.30
45983;DHT22;31711;47.158;7.346;2023-07-09T10:05:51;28.60;99.10
45983;DHT22;31711;47.158;7.346;2023-07-09T10:17:05;28.60;95.80
45983;DHT22;31711;47.158;7.346;2023-07-09T10:19:44;28.90;96.00
45983;DHT22;31711;47.158;7.346;2023-07-09T10:28:00;29.40;94.90
45983;DHT22;31711;47.158;7.346;2023-07-09T10:30:55;29.50;94.30
45983;DHT22;31711;47.158;7.346;2023-07-09T10:33:27;29.70;93.10
45983;DHT22;31711;47.158;7.346;2023-07-09T10:39:13;29.70;94.60
45983;DHT22;31711;47.158;7.346;2023-07-09T10:41:40;30.00;93.20
45983;DHT22;31711;47.158;7.346;2023-07-09T10:44:18;30.00;94.20
45983;DHT22;31711;47.158;7.346;2023-07-09T10:46:50;29.90;93.30
45983;DHT22;31711;47.158;7.346;2023-07-09T10:49:20;30.10;94.60
45983;DHT22;31711;47.158;7.346;2023-07-09T10:51:53;30.30;93.40
45983;DHT22;31711;47.158;7.346;2023-07-09T10:54:32;30.40;93.70
45983;DHT22;31711;47.158;7.346;2023-07-09T10:57:16;30.20;92.70
45983;DHT22;31711;47.158;7.346;2023-07-09T10:59:47;30.20;93.20
45983;DHT22;31711;47.158;7.346;2023-07-09T11:02:30;30.30;94.30
45983;DHT22;31711;47.158;7.346;2023-07-09T11:05:02;30.40;92.50
45983;DHT22;31711;47.158;7.346;2023-07-09T11:07:36;30.50;91.10
45983;DHT22;31711;47.158;7.346;2023-07-09T11:10:04;30.70;93.80
45983;DHT22;31711;47.158;7.346;2023-07-09T11:12:33;30.90;93.30
45983;DHT22;31711;47.158;7.346;2023-07-09T11:15:14;31.10;92.30
45983;DHT22;31711;47.158;7.346;2023-07-09T11:17:45;31.40;93.00
45983;DHT22;31711;47.158;7.346;2023-07-09T11:23:23;31.40;93.40
45983;DHT22;31711;47.158;7.346;2023-07-09T11:26:03;31.50;91.60
45983;DHT22;31711;47.158;7.346;2023-07-09T11:28:37;31.40;92.60
45983;DHT22;31711;47.158;7.346;2023-07-09T11:31:08;31.60;90.70
45983;DHT22;31711;47.158;7.346;2023-07-09T11:33:46;31.70;92.00
45983;DHT22;31711;47.158;7.346;2023-07-09T11:36:22;31.80;90.70
45983;DHT22;31711;47.158;7.346;2023-07-09T11:38:49;31.70;90.00
45983;DHT22;31711;47.158;7.346;2023-07-09T11:44:20;31.70;89.70
45983;DHT22;31711;47.158;7.346;2023-07-09T11:50:05;32.20;86.50
45983;DHT22;31711;47.158;7.346;2023-07-09T11:55:43;32.20;84.80
45983;DHT22;31711;47.158;7.346;2023-07-09T11:58:12;32.30;84.80
45983;DHT22;31711;47.158;7.346;2023-07-09T12:00:49;32.40;83.00
45983;DHT22;31711;47.158;7.346;2023-07-09T12:05:52;32.50;81.80
45983;DHT22;31711;47.158;7.346;2023-07-09T12:08:22;32.60;81.80
45983;DHT22;31711;47.158;7.346;2023-07-09T12:10:51;32.70;80.50
45983;DHT22;31711;47.158;7.346;2023-07-09T12:13:18;32.80;82.80
45983;DHT22;31711;47.158;7.346;2023-07-09T12:15:44;33.10;80.60
45983;DHT22;31711;47.158;7.346;2023-07-09T12:18:12;33.40;81.80
45983;DHT22;31711;47.158;7.346;2023-07-09T12:20:39;33.50;78.10
45983;DHT22;31711;47.158;7.346;2023-07-09T12:23:32;33.60;81.20
45983;DHT22;31711;47.158;7.346;2023-07-09T12:26:03;33.40;75.70
45983;DHT22;31711;47.158;7.346;2023-07-09T12:28:30;33.00;77.00
45983;DHT22;31711;47.158;7.346;2023-07-09T12:30:56;33.20;79.50
45983;DHT22;31711;47.158;7.346;2023-07-09T12:33:25;33.60;76.80
45983;DHT22;31711;47.158;7.346;2023-07-09T12:36:00;33.90;79.00
45983;DHT22;31711;47.158;7.346;2023-07-09T12:38:30;34.20;75.30
45983;DHT22;31711;47.158;7.346;2023-07-09T12:41:00;34.20;75.30
45983;DHT22;31711;47.158;7.346;2023-07-09T12:43:31;33.90;76.40
45983;DHT22;31711;47.158;7.346;2023-07-09T12:45:59;34.30;75.70
45983;DHT22;31711;47.158;7.346;2023-07-09T12:48:28;34.20;76.70
45983;DHT22;31711;47.158;7.346;2023-07-09T12:50:56;34.20;76.20
45983;DHT22;31711;47.158;7.346;2023-07-09T12:53:25;34.50;77.50
45983;DHT22;31711;47.158;7.346;2023-07-09T12:56:00;34.10;76.80
45983;DHT22;31711;47.158;7.346;2023-07-09T12:58:33;33.80;76.20
45983;DHT22;31711;47.158;7.346;2023-07-09T13:01:13;34.40;78.30
45983;DHT22;31711;47.158;7.346;2023-07-09T13:03:40;34.80;79.30
45983;DHT22;31711;47.158;7.346;2023-07-09T13:06:23;35.10;77.10
45983;DHT22;31711;47.158;7.346;2023-07-09T13:08:54;35.00;73.70
45983;DHT22;31711;47.158;7.346;2023-07-09T13:11:20;34.60;75.30
45983;DHT22;31711;47.158;7.346;2023-07-09T13:13:58;34.30;76.70
45983;DHT22;31711;47.158;7.346;2023-07-09T13:16:25;34.80;75.50
45983;DHT22;31711;47.158;7.346;2023-07-09T13:18:51;35.10;75.40
45983;DHT22;31711;47.158;7.346;2023-07-09T13:21:19;35.40;77.10
45983;DHT22;31711;47.158;7.346;2023-07-09T13:23:45;35.70;78.10
45983;DHT22;31711;47.158;7.346;2023-07-09T13:26:15;35.80;75.10
45983;DHT22;31711;47.158;7.346;2023-07-09T13:28:42;35.00;70.70
45983;DHT22;31711;47.158;7.346;2023-07-09T13:31:19;35.00;72.20
45983;DHT22;31711;47.158;7.346;2023-07-09T13:33:57;35.20;73.40
45983;DHT22;31711;47.158;7.346;2023-07-09T13:36:24;35.50;73.40
45983;DHT22;31711;47.158;7.346;2023-07-09T13:38:50;35.70;74.10
45983;DHT22;31711;47.158;7.346;2023-07-09T13:41:17;35.80;73.60
45983;DHT22;31711;47.158;7.346;2023-07-09T13:43:46;36.10;73.00
45983;DHT22;31711;47.158;7.346;2023-07-09T13:46:12;36.50;70.10
45983;DHT22;31711;47.158;7.346;2023-07-09T13:48:40;36.30;69.90
45983;DHT22;31711;47.158;7.346;2023-07-09T13:51:17;36.60;69.50
45983;DHT22;31711;47.158;7.346;2023-07-09T13:53:44;37.00;69.30
45983;DHT22;31711;47.158;7.346;2023-07-09T13:56:11;36.70;68.00
45983;DHT22;31711;47.158;7.346;2023-07-09T13:58:37;37.10;66.70
45983;DHT22;31711;47.158;7.346;2023-07-09T14:01:18;36.70;66.10
45983;DHT22;31711;47.158;7.346;2023-07-09T14:03:46;36.70;66.70
45983;DHT22;31711;47.158;7.346;2023-07-09T14:06:13;36.60;67.60
45983;DHT22;31711;47.158;7.346;2023-07-09T14:08:39;36.60;67.20
45983;DHT22;31711;47.158;7.346;2023-07-09T14:11:12;36.40;67.70
45983;DHT22;31711;47.158;7.346;2023-07-09T14:13:39;36.60;67.10
45983;DHT22;31711;47.158;7.346;2023-07-09T14:16:06;36.20;66.30
45983;DHT22;31711;47.158;7.346;2023-07-09T14:18:32;36.20;66.60
45983;DHT22;31711;47.158;7.346;2023-07-09T14:20:58;36.40;68.70
45983;DHT22;31711;47.158;7.346;2023-07-09T14:23:24;36.40;67.50
45983;DHT22;31711;47.158;7.346;2023-07-09T14:25:50;35.80;67.40
45983;DHT22;31711;47.158;7.346;2023-07-09T14:28:19;35.70;68.00
45983;DHT22;31711;47.158;7.346;2023-07-09T14:30:48;35.00;66.20
45983;DHT22;31711;47.158;7.346;2023-07-09T14:33:17;34.70;66.60
45983;DHT22;31711;47.158;7.346;2023-07-09T14:35:44;34.70;70.00
45983;DHT22;31711;47.158;7.346;2023-07-09T14:40:46;34.20;71.20
45983;DHT22;31711;47.158;7.346;2023-07-09T14:43:12;34.20;71.90
45983;DHT22;31711;47.158;7.346;2023-07-09T14:45:38;34.10;71.80
45983;DHT22;31711;47.158;7.346;2023-07-09T14:48:25;34.10;72.20
45983;DHT22;31711;47.158;7.346;2023-07-09T14:50:51;33.80;74.40
45983;DHT22;31711;47.158;7.346;2023-07-09T14:53:23;33.50;75.90
45983;DHT22;31711;47.158;7.346;2023-07-09T14:55:49;33.40;75.80
45983;DHT22;31711;47.158;7.346;2023-07-09T14:58:20;33.20;74.70
45983;DHT22;31711;47.158;7.346;2023-07-09T15:00:47;32.90;73.70
45983;DHT22;31711;47.158;7.346;2023-07-09T15:03:24;32.60;74.80
45983;DHT22;31711;47.158;7.346;2023-07-09T15:05:52;32.50;77.40
45983;DHT22;31711;47.158;7.346;2023-07-09T15:08:20;32.50;79.70
45983;DHT22;31711;47.158;7.346;2023-07-09T15:10:51;32.40;80.60
45983;DHT22;31711;47.158;7.346;2023-07-09T15:13:19;32.10;80.60
45983;DHT22;31711;47.158;7.346;2023-07-09T15:15:46;32.00;82.40
45983;DHT22;31711;47.158;7.346;2023-07-09T15:18:13;31.90;82.00
45983;DHT22;31711;47.158;7.346;2023-07-09T15:20:43;31.70;78.70
45983;DHT22;31711;47.158;7.346;2023-07-09T15:23:12;31.60;79.80
45983;DHT22;31711;47.158;7.346;2023-07-09T15:25:38;31.40;80.00
45983;DHT22;31711;47.158;7.346;2023-07-09T15:28:04;31.20;76.90
45983;DHT22;31711;47.158;7.346;2023-07-09T15:30:30;31.10;76.30
45983;DHT22;31711;47.158;7.346;2023-07-09T15:32:58;31.10;78.60
45983;DHT22;31711;47.158;7.346;2023-07-09T15:35:28;31.10;80.20
45983;DHT22;31711;47.158;7.346;2023-07-09T15:37:56;30.90;81.70
45983;DHT22;31711;47.158;7.346;2023-07-09T15:40:25;30.90;82.60
45983;DHT22;31711;47.158;7.346;2023-07-09T15:42:57;31.00;82.70
45983;DHT22;31711;47.158;7.346;2023-07-09T15:45:23;30.90;83.30
45983;DHT22;31711;47.158;7.346;2023-07-09T15:47:51;30.70;76.00
45983;DHT22;31711;47.158;7.346;2023-07-09T15:50:18;30.50;71.40
45983;DHT22;31711;47.158;7.346;2023-07-09T15:52:45;30.50;71.70
45983;DHT22;31711;47.158;7.346;2023-07-09T15:55:25;30.30;71.70
45983;DHT22;31711;47.158;7.346;2023-07-09T15:57:53;30.30;68.90
45983;DHT22;31711;47.158;7.346;2023-07-09T16:00:25;30.30;69.80
45983;DHT22;31711;47.158;7.346;2023-07-09T16:02:52;30.40;69.70
45983;DHT22;31711;47.158;7.346;2023-07-09T16:05:26;30.40;67.60
45983;DHT22;31711;47.158;7.346;2023-07-09T16:07:56;30.50;66.00
45983;DHT22;31711;47.158;7.346;2023-07-09T16:10:23;30.70;66.20
45983;DHT22;31711;47.158;7.346;2023-07-09T16:12:50;30.70;67.30
45983;DHT22;31711;47.158;7.346;2023-07-09T16:15:22;30.90;68.70
45983;DHT22;31711;47.158;7.346;2023-07-09T16:17:50;31.10;67.90
45983;DHT22;31711;47.158;7.346;2023-07-09T16:20:18;31.20;67.20
45983;DHT22;31711;47.158;7.346;2023-07-09T16:22:49;31.40;68.90
45983;DHT22;31711;47.158;7.346;2023-07-09T16:25:22;31.60;68.40
45983;DHT22;31711;47.158;7.346;2023-07-09T16:27:49;31.80;69.00
45983;DHT22;31711;47.158;7.346;2023-07-09T16:30:20;32.00;66.50
45983;DHT22;31711;47.158;7.346;2023-07-09T16:32:47;32.20;68.20